Time;durP1;ratioP1;P1;durP2;ratioP2;P2;SDS_P1;SDS_P2;PMS_P1;PMS_P2;Temp;Humidity;BMP_temperature;BMP_pressure;BME280_temperature;BME280_humidity;BME280_pressure;Samples;Min_cycle;Max_cycle;Signal;HPM_P1;HPM_P2
2023/06/25 00:02:22;;;;;;;5.90;5.40;;;;;;;16.20;100.00;99769.06;5111880;28;20231;-76
2023/06/25 00:04:49;;;;;;;6.30;5.80;;;;;;;16.16;100.00;99762.53;5111516;28;20228;-75
2023/06/25 00:07:17;;;;;;;5.60;5.20;;;;;;;16.13;100.00;99769.28;5110086;28;20221;-75
2023/06/25 00:09:54;;;;;;;5.60;5.20;;;;;;;16.09;100.00;99764.63;5111397;28;20197;-74
2023/06/25 00:12:21;;;;;;;6.90;6.20;;;;;;;16.04;100.00;99761.84;5111014;28;20200;-75
2023/06/25 00:14:49;;;;;;;5.80;5.40;;;;;;;15.99;100.00;99761.78;5105501;28;20192;-75
2023/06/25 00:17:18;;;;;;;6.40;5.90;;;;;;;15.94;100.00;99762.53;5109566;28;20197;-74
2023/06/25 00:19:45;;;;;;;6.13;5.53;;;;;;;15.91;100.00;99763.03;5109004;28;20192;-76
2023/06/25 00:22:12;;;;;;;6.53;5.93;;;;;;;15.85;100.00;99761.34;5111699;28;20221;-74
2023/06/25 00:24:39;;;;;;;6.03;5.53;;;;;;;15.78;100.00;99753.41;5115463;28;20198;-76
2023/06/25 00:27:06;;;;;;;7.17;6.47;;;;;;;15.71;100.00;99755.50;5115728;28;20193;-74
2023/06/25 00:29:35;;;;;;;6.73;6.13;;;;;;;15.65;100.00;99750.25;5115764;28;20188;-75
2023/06/25 00:32:02;;;;;;;6.70;6.10;;;;;;;15.54;100.00;99745.81;5115713;28;20219;-76
2023/06/25 00:34:29;;;;;;;6.40;5.90;;;;;;;15.51;100.00;99744.41;5115229;28;20241;-74
2023/06/25 00:36:57;;;;;;;6.73;6.23;;;;;;;15.44;100.00;99747.25;5115594;28;20210;-76
2023/06/25 00:39:24;;;;;;;7.10;6.30;;;;;;;15.36;100.00;99750.38;5115366;28;20197;-75
2023/06/25 00:41:51;;;;;;;6.20;5.70;;;;;;;15.29;100.00;99738.94;5097263;28;20219;-74
2023/06/25 00:44:18;;;;;;;6.60;6.10;;;;;;;15.23;100.00;99742.63;5115392;28;20192;-75
2023/06/25 00:46:44;;;;;;;6.03;5.53;;;;;;;15.19;100.00;99741.47;5115562;28;20731;-76
2023/06/25 00:49:13;;;;;;;6.50;5.90;;;;;;;15.15;100.00;99742.22;5115119;28;20192;-75
2023/06/25 00:51:40;;;;;;;6.00;5.50;;;;;;;15.10;100.00;99740.25;5114538;28;20188;-74
2023/06/25 00:54:07;;;;;;;6.30;5.80;;;;;;;15.05;100.00;99744.75;5113499;28;20191;-75
2023/06/25 00:56:33;;;;;;;6.57;6.07;;;;;;;14.97;100.00;99735.22;5114491;28;20249;-76
2023/06/25 00:59:01;;;;;;;7.00;6.40;;;;;;;14.95;100.00;99737.31;5094094;28;20221;-75
2023/06/25 01:01:54;;;;;;;6.47;5.97;;;;;;;14.88;100.00;99723.19;5115097;28;20213;-75
2023/06/25 01:04:27;;;;;;;6.63;5.77;;;;;;;14.83;100.00;99726.63;5090210;28;20265;-75
2023/06/25 01:06:57;;;;;;;6.60;6.10;;;;;;;14.79;100.00;99730.84;5096860;28;20207;-75
2023/06/25 01:09:25;;;;;;;6.37;5.87;;;;;;;14.73;100.00;99723.75;5097079;28;20184;-75
2023/06/25 01:12:05;;;;;;;6.73;6.07;;;;;;;14.62;100.00;99718.41;5096921;28;20203;-75
2023/06/25 01:14:34;;;;;;;6.80;6.30;;;;;;;14.54;100.00;99714.25;5106498;28;20670;-75
2023/06/25 01:17:01;;;;;;;6.73;6.23;;;;;;;14.48;100.00;99720.59;5096624;28;20196;-75
2023/06/25 01:19:31;;;;;;;6.83;6.30;;;;;;;14.44;100.00;99719.47;5111332;28;20195;-74
2023/06/25 01:21:59;;;;;;;7.47;6.70;;;;;;;14.38;100.00;99715.84;5114624;28;20211;-75
2023/06/25 01:24:27;;;;;;;7.57;6.87;;;;;;;14.36;100.00;99719.84;5114797;28;20188;-75
2023/06/25 01:26:56;;;;;;;6.63;6.10;;;;;;;14.31;100.00;99714.34;5079888;28;20219;-76
2023/06/25 01:29:23;;;;;;;7.20;6.60;;;;;;;14.29;100.00;99717.25;5114738;28;20719;-74
2023/06/25 01:31:51;;;;;;;6.90;6.33;;;;;;;14.26;100.00;99709.69;5113451;28;20188;-75
2023/06/25 01:34:20;;;;;;;7.30;6.70;;;;;;;14.23;100.00;99706.66;5110261;28;20604;-75
2023/06/25 01:36:51;;;;;;;6.77;6.17;;;;;;;14.16;100.00;99704.09;5092016;28;20569;-75
2023/06/25 01:39:21;;;;;;;7.73;7.03;;;;;;;14.12;100.00;99705.63;5095310;28;20215;-74
2023/06/25 01:41:48;;;;;;;7.17;6.37;;;;;;;14.07;100.00;99706.34;5110207;28;20212;-75
2023/06/25 01:44:18;;;;;;;7.30;6.70;;;;;;;14.06;100.00;99696.63;5095824;28;20208;-75
2023/06/25 01:46:47;;;;;;;7.00;6.40;;;;;;;14.01;100.00;99688.44;5114644;28;20198;-74
2023/06/25 01:49:14;;;;;;;7.90;7.20;;;;;;;13.96;100.00;99701.00;5088901;28;20561;-74
2023/06/25 01:51:56;;;;;;;7.20;6.60;;;;;;;13.93;100.00;99694.22;5114249;28;20266;-75
2023/06/25 01:54:22;;;;;;;7.30;6.70;;;;;;;13.89;100.00;99686.88;5095805;28;20233;-75
2023/06/25 01:56:49;;;;;;;7.13;6.63;;;;;;;13.86;100.00;99700.78;5114121;28;20209;-74
2023/06/25 01:59:16;;;;;;;7.30;6.63;;;;;;;13.81;100.00;99695.34;5086715;28;20682;-74
2023/06/25 02:01:43;;;;;;;7.57;6.87;;;;;;;13.81;100.00;99698.03;5086143;28;20690;-74
2023/06/25 02:04:10;;;;;;;7.57;6.97;;;;;;;13.79;100.00;99700.13;5089675;28;20238;-74
2023/06/25 02:06:36;;;;;;;7.53;6.93;;;;;;;13.78;100.00;99699.31;5108233;28;20777;-74
2023/06/25 02:09:03;;;;;;;7.47;6.87;;;;;;;13.75;100.00;99699.78;5089413;28;20816;-75
2023/06/25 02:11:30;;;;;;;7.47;6.87;;;;;;;13.73;100.00;99693.00;5088379;28;20262;-75
2023/06/25 02:13:57;;;;;;;7.67;7.00;;;;;;;13.71;100.00;99689.75;5089191;28;20191;-75
2023/06/25 02:16:23;;;;;;;8.03;7.33;;;;;;;13.65;100.00;99697.72;5082464;28;20206;-74
2023/06/25 02:18:52;;;;;;;7.30;6.70;;;;;;;13.62;100.00;99692.78;5109134;28;20622;-75
2023/06/25 02:21:19;;;;;;;7.30;6.67;;;;;;;13.59;100.00;99698.66;5113896;28;20188;-76
2023/06/25 02:23:47;;;;;;;7.77;7.00;;;;;;;13.55;100.00;99694.78;5113532;28;20219;-77
2023/06/25 02:26:14;;;;;;;6.97;6.37;;;;;;;13.47;100.00;99695.16;5104090;28;20285;-74
2023/06/25 02:28:41;;;;;;;7.67;7.07;;;;;;;13.45;100.00;99689.19;5113534;28;20196;-75
2023/06/25 02:31:07;;;;;;;7.33;6.73;;;;;;;13.40;100.00;99697.16;5113041;28;20204;-75
2023/06/25 02:33:34;;;;;;;7.73;7.13;;;;;;;13.39;100.00;99697.41;5113462;28;20191;-74
2023/06/25 02:36:01;;;;;;;7.80;7.10;;;;;;;13.37;100.00;99704.88;5104423;28;20609;-77
2023/06/25 02:38:28;;;;;;;7.43;6.73;;;;;;;13.34;100.00;99700.00;5113648;28;20188;-75
2023/06/25 02:40:54;;;;;;;7.73;7.03;;;;;;;13.36;100.00;99697.88;5113117;28;20605;-76
2023/06/25 02:43:21;;;;;;;8.10;7.50;;;;;;;13.33;100.00;99696.47;5113172;28;20223;-76
2023/06/25 02:45:48;;;;;;;7.80;7.10;;;;;;;13.30;100.00;99696.94;5112800;28;20234;-75
2023/06/25 02:48:15;;;;;;;7.43;6.83;;;;;;;13.34;100.00;99695.44;5113098;28;20625;-75
2023/06/25 02:50:43;;;;;;;9.37;7.80;;;;;;;13.30;100.00;99696.94;5094459;28;20195;-77
2023/06/25 02:53:10;;;;;;;7.90;7.30;;;;;;;13.28;100.00;99696.38;5113009;28;20196;-75
2023/06/25 02:55:37;;;;;;;8.27;7.50;;;;;;;13.27;100.00;99694.72;5087242;28;20611;-75
2023/06/25 02:58:04;;;;;;;8.13;7.43;;;;;;;13.26;100.00;99697.63;5112671;28;20192;-76
2023/06/25 03:00:31;;;;;;;7.60;7.00;;;;;;;13.28;100.00;99699.06;5112374;28;20229;-75
2023/06/25 03:02:57;;;;;;;7.87;7.10;;;;;;;13.28;100.00;99698.22;5088654;28;20247;-75
2023/06/25 03:05:24;;;;;;;7.80;7.20;;;;;;;13.31;100.00;99700.44;5112277;28;20184;-75
2023/06/25 03:07:57;;;;;;;8.13;7.43;;;;;;;13.34;100.00;99700.81;5109766;28;20241;-75
2023/06/25 03:10:26;;;;;;;8.57;7.87;;;;;;;13.37;100.00;99700.31;5088710;28;20195;-75
2023/06/25 03:12:54;;;;;;;8.83;8.03;;;;;;;13.39;100.00;99708.19;5094073;28;20236;-75
2023/06/25 03:15:21;;;;;;;8.17;7.30;;;;;;;13.41;100.00;99700.66;5087138;28;20200;-75
2023/06/25 03:17:49;;;;;;;8.23;7.57;;;;;;;13.42;100.00;99705.00;5069353;28;20212;-75
2023/06/25 03:20:17;;;;;;;8.90;8.20;;;;;;;13.50;100.00;99707.31;5085889;28;20282;-75
2023/06/25 03:22:44;;;;;;;8.07;7.37;;;;;;;13.54;100.00;99700.41;5081620;28;20223;-77
2023/06/25 03:25:10;;;;;;;7.90;7.20;;;;;;;13.55;100.00;99705.56;5082687;28;20201;-75
2023/06/25 03:27:41;;;;;;;8.83;8.03;;;;;;;13.60;100.00;99707.53;5083011;28;20688;-74
2023/06/25 03:30:08;;;;;;;8.20;7.50;;;;;;;13.66;100.00;99709.28;5094277;28;20203;-75
2023/06/25 03:32:35;;;;;;;8.27;7.57;;;;;;;13.68;100.00;99713.38;5111172;28;20196;-76
2023/06/25 03:35:03;;;;;;;9.07;8.27;;;;;;;13.76;100.00;99719.47;5093633;28;20719;-75
2023/06/25 03:37:31;;;;;;;8.50;7.70;;;;;;;13.82;100.00;99724.69;5090484;28;20200;-75
2023/06/25 03:39:57;;;;;;;8.67;7.87;;;;;;;13.88;100.00;99731.00;5090208;28;20203;-75
2023/06/25 03:42:24;;;;;;;9.07;8.23;;;;;;;13.97;100.00;99732.28;5112392;28;20224;-76
2023/06/25 03:44:54;;;;;;;8.10;7.30;;;;;;;14.03;100.00;99729.44;5112342;28;20188;-75
2023/06/25 03:47:25;;;;;;;8.97;8.13;;;;;;;14.11;100.00;99731.75;5078131;28;20207;-76
2023/06/25 03:49:53;;;;;;;7.93;7.23;;;;;;;14.27;100.00;99734.75;5093804;28;20199;-76
2023/06/25 03:52:20;;;;;;;8.37;7.67;;;;;;;14.37;100.00;99737.66;5088265;28;20223;-74
2023/06/25 03:54:47;;;;;;;8.60;7.83;;;;;;;14.47;100.00;99738.66;5111924;28;20215;-76
2023/06/25 03:57:14;;;;;;;8.10;7.30;;;;;;;14.62;100.00;99740.81;5094024;28;20192;-76
2023/06/25 03:59:40;;;;;;;8.37;7.60;;;;;;;14.78;100.00;99740.03;5095756;28;20285;-76
2023/06/25 04:02:07;;;;;;;9.20;8.40;;;;;;;15.00;100.00;99742.78;5089096;28;20213;-75
2023/06/25 04:04:34;;;;;;;8.33;7.63;;;;;;;15.23;100.00;99749.91;5116108;28;20228;-75
2023/06/25 04:07:02;;;;;;;8.23;7.60;;;;;;;15.53;100.00;99745.00;5097987;28;20623;-75
2023/06/25 04:09:29;;;;;;;8.40;7.70;;;;;;;16.24;100.00;99745.84;5096426;28;20203;-76
2023/06/25 04:11:56;;;;;;;8.83;7.70;;;;;;;17.92;100.00;99740.72;5113202;28;20210;-75
2023/06/25 04:14:22;;;;;;;7.53;6.83;;;;;;;19.85;100.00;99750.63;5097598;28;20206;-76
2023/06/25 04:16:49;;;;;;;7.27;6.67;;;;;;;21.23;100.00;99748.75;5116048;28;20208;-76
2023/06/25 04:19:16;;;;;;;6.67;6.17;;;;;;;22.33;100.00;99738.50;5092556;28;20222;-77
2023/06/25 04:21:43;;;;;;;6.87;6.27;;;;;;;23.54;100.00;99743.16;5097718;28;20241;-75
2023/06/25 04:24:10;;;;;;;6.53;6.00;;;;;;;24.11;100.00;99744.47;5097310;28;20236;-77
2023/06/25 04:26:36;;;;;;;6.40;5.80;;;;;;;24.94;100.00;99735.78;5115564;28;20241;-75
2023/06/25 04:29:03;;;;;;;6.07;5.57;;;;;;;25.43;100.00;99740.25;5095969;28;20198;-76
2023/06/25 04:31:30;;;;;;;6.90;6.20;;;;;;;25.63;100.00;99727.94;5097095;28;20579;-75
2023/06/25 04:33:57;;;;;;;6.67;5.50;;;;;;;26.31;100.00;99736.75;5080592;28;20233;-75
2023/06/25 04:36:24;;;;;;;6.33;5.73;;;;;;;26.64;100.00;99733.19;5091312;28;20225;-76
2023/06/25 04:38:55;;;;;;;5.80;5.30;;;;;;;26.41;99.99;99730.94;5097077;28;20238;-74
2023/06/25 04:41:26;;;;;;;6.22;5.72;;;;;;;25.96;97.09;99722.09;5097116;28;20239;-75
2023/06/25 04:43:54;;;;;;;5.83;5.30;;;;;;;24.54;100.00;99723.81;5115163;28;20657;-74
2023/06/25 04:46:23;;;;;;;6.80;6.17;;;;;;;23.63;100.00;99728.47;5092903;28;20199;-75
2023/06/25 04:48:51;;;;;;;6.25;5.72;;;;;;;22.74;100.00;99721.53;5092709;28;20203;-75
2023/06/25 04:51:18;;;;;;;6.53;6.03;;;;;;;22.43;100.00;99731.28;5096296;28;20668;-75
2023/06/25 04:53:45;;;;;;;6.07;5.57;;;;;;;22.18;100.00;99726.97;5112121;28;20202;-74
2023/06/25 04:56:11;;;;;;;6.97;6.37;;;;;;;21.90;100.00;99745.03;5113226;28;20248;-76
2023/06/25 04:58:38;;;;;;;6.77;6.20;;;;;;;21.63;100.00;99742.06;5107803;28;20188;-75
2023/06/25 05:01:05;;;;;;;6.43;5.90;;;;;;;21.66;100.00;99749.66;5105116;28;20209;-75
2023/06/25 05:03:31;;;;;;;7.17;6.47;;;;;;;21.74;100.00;99738.94;5114355;28;20234;-75
2023/06/25 05:05:59;;;;;;;6.80;6.20;;;;;;;21.61;100.00;99736.91;5114337;28;20283;-74
2023/06/25 05:08:26;;;;;;;7.10;6.27;;;;;;;21.72;100.00;99724.78;5114779;28;20195;-74
2023/06/25 05:10:52;;;;;;;6.60;6.10;;;;;;;21.51;100.00;99726.09;5101635;28;20195;-75
2023/06/25 05:13:19;;;;;;;6.77;6.23;;;;;;;21.36;100.00;99729.81;5103288;28;20600;-74
2023/06/25 05:15:46;;;;;;;7.00;6.30;;;;;;;21.49;100.00;99731.03;5110451;28;20600;-75
2023/06/25 05:18:13;;;;;;;6.80;6.30;;;;;;;21.52;100.00;99734.00;5114784;28;20195;-76
2023/06/25 05:20:40;;;;;;;7.23;6.60;;;;;;;21.72;100.00;99726.69;5108952;28;20256;-75
2023/06/25 05:23:08;;;;;;;6.83;6.23;;;;;;;21.65;100.00;99728.97;5114521;28;20214;-75
2023/06/25 05:25:35;;;;;;;7.13;6.47;;;;;;;21.95;100.00;99729.44;5114383;28;20738;-75
2023/06/25 05:28:03;;;;;;;6.60;6.10;;;;;;;21.89;100.00;99727.03;5114674;28;20252;-75
2023/06/25 05:30:31;;;;;;;6.90;6.30;;;;;;;22.11;100.00;99729.25;5110260;28;20237;-75
2023/06/25 05:33:01;;;;;;;6.77;6.07;;;;;;;22.45;100.00;99731.78;5114407;28;20241;-75
2023/06/25 05:35:30;;;;;;;7.15;6.22;;;;;;;22.60;100.00;99721.44;5108493;28;20199;-75
2023/06/25 05:37:57;;;;;;;7.32;6.72;;;;;;;22.42;100.00;99722.28;5114423;28;20619;-75
2023/06/25 05:40:26;;;;;;;6.70;6.10;;;;;;;21.74;100.00;99717.09;5114107;28;20568;-75
2023/06/25 05:42:54;;;;;;;7.53;6.90;;;;;;;21.70;100.00;99715.25;5114181;28;20223;-75
2023/06/25 05:45:21;;;;;;;6.97;6.38;;;;;;;21.66;100.00;99725.94;5104834;28;20194;-75
2023/06/25 05:47:48;;;;;;;7.43;6.83;;;;;;;21.65;100.00;99723.53;5114146;28;20712;-75
2023/06/25 05:50:15;;;;;;;7.30;6.60;;;;;;;21.83;100.00;99718.13;5113739;28;20241;-76
2023/06/25 05:52:43;;;;;;;6.97;6.37;;;;;;;21.86;100.00;99720.25;5114211;28;20558;-75
2023/06/25 05:55:11;;;;;;;7.05;6.45;;;;;;;22.01;100.00;99718.47;5113831;28;20249;-75
2023/06/25 05:57:39;;;;;;;7.20;6.60;;;;;;;22.07;100.00;99720.81;5112889;28;20192;-75
2023/06/25 06:00:08;;;;;;;6.70;6.10;;;;;;;22.09;100.00;99712.34;5106587;28;20200;-75
2023/06/25 06:02:43;;;;;;;7.13;6.50;;;;;;;21.96;100.00;99711.16;5097271;28;20215;-75
2023/06/25 06:05:10;;;;;;;7.90;7.20;;;;;;;22.01;100.00;99713.84;5113772;28;20207;-75
2023/06/25 06:07:36;;;;;;;7.32;6.63;;;;;;;21.86;100.00;99705.81;5113727;28;20212;-75
2023/06/25 06:10:03;;;;;;;6.95;6.40;;;;;;;22.05;100.00;99709.41;5113600;28;20281;-75
2023/06/25 06:12:30;;;;;;;7.47;6.78;;;;;;;22.31;100.00;99705.22;5113515;28;20191;-76
2023/06/25 06:14:57;;;;;;;7.07;6.38;;;;;;;22.52;100.00;99716.66;5110950;28;20633;-75
2023/06/25 06:17:24;;;;;;;7.72;7.13;;;;;;;22.52;100.00;99716.66;5113698;28;20598;-75
2023/06/25 06:19:50;;;;;;;7.15;6.55;;;;;;;22.47;100.00;99715.91;5107191;28;20679;-75
2023/06/25 06:22:17;;;;;;;6.97;6.38;;;;;;;22.57;100.00;99710.31;5111670;28;20192;-75
2023/06/25 06:24:44;;;;;;;6.97;6.30;;;;;;;22.67;100.00;99713.72;5109070;28;20698;-75
2023/06/25 06:27:11;;;;;;;7.13;6.45;;;;;;;22.65;100.00;99705.00;5101824;28;20268;-75
2023/06/25 06:29:37;;;;;;;6.85;6.28;;;;;;;22.64;100.00;99713.47;5104707;28;20545;-75
2023/06/25 06:32:05;;;;;;;6.90;6.30;;;;;;;22.51;100.00;99715.03;5112462;28;20192;-75
2023/06/25 06:34:31;;;;;;;6.90;6.30;;;;;;;22.70;100.00;99710.41;5110823;28;20262;-75
2023/06/25 06:36:58;;;;;;;7.45;6.75;;;;;;;22.56;100.00;99695.84;5111042;28;20646;-75
2023/06/25 06:39:25;;;;;;;7.95;7.22;;;;;;;22.66;100.00;99700.34;5108758;28;20734;-76
2023/06/25 06:41:51;;;;;;;7.38;6.65;;;;;;;22.79;100.00;99702.34;5099591;28;20261;-75
2023/06/25 06:44:19;;;;;;;7.60;6.80;;;;;;;22.90;100.00;99703.00;5112434;28;20227;-75
2023/06/25 06:46:45;;;;;;;7.22;6.63;;;;;;;22.59;100.00;99694.44;5112328;28;20245;-75
2023/06/25 06:49:12;;;;;;;7.22;6.60;;;;;;;22.45;100.00;99691.63;5108222;28;20200;-76
2023/06/25 06:51:40;;;;;;;7.10;6.60;;;;;;;22.61;100.00;99692.22;5105726;28;20189;-76
2023/06/25 06:54:07;;;;;;;7.25;6.65;;;;;;;22.41;100.00;99693.34;5101234;28;20252;-74
2023/06/25 06:56:34;;;;;;;9.27;7.20;;;;;;;22.70;100.00;99696.75;5095040;28;20693;-76
2023/06/25 06:59:01;;;;;;;8.00;7.30;;;;;;;22.58;100.00;99696.38;5103818;28;20718;-75
2023/06/25 07:01:28;;;;;;;7.28;6.57;;;;;;;22.71;100.00;99697.56;5104268;28;20253;-75
2023/06/25 07:03:56;;;;;;;7.30;6.70;;;;;;;22.91;100.00;99704.63;5100039;28;20235;-75
2023/06/25 07:06:23;;;;;;;7.68;7.07;;;;;;;22.78;100.00;99695.25;5109035;28;20202;-76
2023/06/25 07:08:50;;;;;;;7.38;6.78;;;;;;;22.93;100.00;99688.72;5094181;28;20203;-76
2023/06/25 07:11:18;;;;;;;7.30;6.60;;;;;;;22.74;100.00;99692.31;5112059;28;20241;-76
2023/06/25 07:13:47;;;;;;;7.32;6.68;;;;;;;23.00;100.00;99689.16;5107974;28;20208;-75
2023/06/25 07:16:13;;;;;;;7.90;7.20;;;;;;;23.20;100.00;99695.06;5111912;28;20188;-75
2023/06/25 07:18:40;;;;;;;7.38;6.72;;;;;;;23.18;100.00;99694.56;5102361;28;20189;-77
2023/06/25 07:21:07;;;;;;;7.57;6.97;;;;;;;23.05;100.00;99702.75;5109358;28;20187;-76
2023/06/25 07:23:35;;;;;;;7.13;6.60;;;;;;;22.80;100.00;99691.13;5111823;28;20207;-75
2023/06/25 07:26:03;;;;;;;7.28;6.63;;;;;;;22.79;100.00;99685.94;5091383;28;20184;-75
2023/06/25 07:28:30;;;;;;;8.02;7.22;;;;;;;22.95;100.00;99689.25;5104883;28;20209;-76
2023/06/25 07:30:56;;;;;;;7.60;6.82;;;;;;;23.25;100.00;99685.97;5111720;28;20594;-74
2023/06/25 07:33:23;;;;;;;7.40;6.80;;;;;;;23.02;100.00;99678.72;5110909;28;20244;-76
2023/06/25 07:35:50;;;;;;;7.50;6.90;;;;;;;23.27;100.00;99673.63;5102521;28;20193;-76
2023/06/25 07:38:17;;;;;;;9.77;6.75;;;;;;;23.42;100.00;99682.66;5103223;28;20217;-75
2023/06/25 07:40:43;;;;;;;7.40;6.70;;;;;;;23.49;100.00;99672.97;5111234;28;20188;-75
2023/06/25 07:43:11;;;;;;;8.25;7.32;;;;;;;23.56;100.00;99675.31;5108932;28;20197;-74
2023/06/25 07:45:38;;;;;;;7.63;6.88;;;;;;;23.51;100.00;99667.19;5108498;28;20188;-76
2023/06/25 07:48:06;;;;;;;8.63;6.95;;;;;;;23.64;100.00;99669.13;5111562;28;20280;-75
2023/06/25 07:50:33;;;;;;;7.93;7.07;;;;;;;23.42;100.00;99669.78;5111448;28;20231;-75
2023/06/25 07:53:00;;;;;;;7.60;6.97;;;;;;;23.35;100.00;99665.81;5111405;28;20194;-75
2023/06/25 07:55:26;;;;;;;7.65;7.05;;;;;;;23.51;100.00;99669.94;5093144;28;20599;-74
2023/06/25 07:57:53;;;;;;;7.65;7.03;;;;;;;23.39;100.00;99664.09;5111367;28;20220;-75
2023/06/25 08:00:20;;;;;;;7.40;6.70;;;;;;;23.73;100.00;99670.03;5108501;28;20214;-75
2023/06/25 08:02:49;;;;;;;7.65;7.00;;;;;;;23.76;100.00;99672.13;5103552;28;20702;-75
2023/06/25 08:05:15;;;;;;;7.82;7.13;;;;;;;23.75;100.00;99667.00;5105721;28;20227;-74
2023/06/25 08:07:42;;;;;;;7.38;6.78;;;;;;;23.79;100.00;99666.06;5105053;28;20278;-75
2023/06/25 08:10:09;;;;;;;7.72;7.03;;;;;;;23.74;100.00;99670.84;5107722;28;20191;-75
2023/06/25 08:12:36;;;;;;;7.18;6.50;;;;;;;23.80;100.00;99669.59;5105778;28;20248;-75
2023/06/25 08:15:04;;;;;;;7.43;6.82;;;;;;;23.90;100.00;99667.47;5104699;28;20192;-75
2023/06/25 08:17:30;;;;;;;6.93;6.43;;;;;;;24.22;100.00;99655.56;5107305;28;20183;-75
2023/06/25 08:19:57;;;;;;;7.45;6.85;;;;;;;24.35;100.00;99657.47;5106169;28;20188;-75
2023/06/25 08:22:24;;;;;;;7.85;7.05;;;;;;;24.42;100.00;99655.09;5111169;28;20617;-74
2023/06/25 08:24:51;;;;;;;7.53;6.82;;;;;;;24.52;100.00;99651.31;5111103;28;20220;-75
2023/06/25 08:27:17;;;;;;;7.85;6.53;;;;;;;24.60;100.00;99657.94;5110774;28;20670;-76
2023/06/25 08:29:44;;;;;;;7.15;6.55;;;;;;;24.43;100.00;99651.25;5100658;28;20188;-75
2023/06/25 08:32:11;;;;;;;7.72;7.00;;;;;;;24.22;100.00;99660.22;5102618;28;20201;-75
2023/06/25 08:34:38;;;;;;;7.63;6.97;;;;;;;24.41;100.00;99655.38;5106252;28;20227;-75
2023/06/25 08:37:04;;;;;;;7.30;6.70;;;;;;;24.46;100.00;99660.75;5108550;28;20656;-77
2023/06/25 08:39:31;;;;;;;6.88;6.38;;;;;;;24.71;100.00;99654.66;5105029;28;20194;-75
2023/06/25 08:41:59;;;;;;;7.45;6.80;;;;;;;24.57;99.35;99656.66;5110797;28;20187;-76
2023/06/25 08:44:26;;;;;;;7.63;6.72;;;;;;;24.77;100.00;99664.38;5095052;28;20253;-76
2023/06/25 08:46:54;;;;;;;7.40;6.80;;;;;;;24.91;100.00;99648.72;5114654;28;20245;-76
2023/06/25 08:49:28;;;;;;;7.95;7.25;;;;;;;24.40;100.00;99642.84;5115106;28;20579;-75
2023/06/25 08:51:56;;;;;;;7.18;6.55;;;;;;;24.25;100.00;99652.22;5114604;28;20190;-76
2023/06/25 08:54:22;;;;;;;7.72;7.03;;;;;;;24.92;100.00;99657.72;5114807;28;20199;-76
2023/06/25 08:56:49;;;;;;;8.10;7.35;;;;;;;24.71;100.00;99648.38;5096526;28;20709;-76
2023/06/25 08:59:16;;;;;;;7.63;6.80;;;;;;;25.04;97.86;99651.66;5114717;28;20194;-76
2023/06/25 09:01:43;;;;;;;7.32;6.72;;;;;;;24.89;94.71;99650.94;5095118;28;20627;-75
2023/06/25 09:04:10;;;;;;;7.40;6.80;;;;;;;24.81;95.61;99639.91;5110938;28;20621;-75
2023/06/25 09:06:40;;;;;;;7.88;7.07;;;;;;;24.93;94.24;99640.97;5113724;28;20569;-76
2023/06/25 09:09:24;;;;;;;7.22;6.55;;;;;;;24.93;95.09;99635.47;5114099;28;20277;-74
2023/06/25 09:11:53;;;;;;;7.95;7.25;;;;;;;24.94;96.21;99634.38;5106801;28;20192;-76
2023/06/25 09:14:20;;;;;;;7.47;6.88;;;;;;;25.35;95.38;99644.22;5108360;28;20202;-75
2023/06/25 09:16:48;;;;;;;7.47;6.88;;;;;;;25.14;93.20;99632.22;5114350;28;20184;-74
2023/06/25 09:19:19;;;;;;;7.28;6.68;;;;;;;25.18;92.18;99634.00;5108048;28;20188;-76
2023/06/25 09:21:46;;;;;;;7.72;7.13;;;;;;;24.76;91.68;99618.94;5096122;28;20667;-77
2023/06/25 09:24:17;;;;;;;7.68;6.97;;;;;;;25.16;93.79;99622.53;5114349;28;20228;-75
2023/06/25 09:26:52;;;;;;;7.82;7.13;;;;;;;25.47;90.94;99618.97;5114075;28;20685;-75
2023/06/25 09:29:20;;;;;;;7.75;7.15;;;;;;;25.64;88.88;99625.31;5106633;28;20236;-76
2023/06/25 09:31:48;;;;;;;7.38;6.68;;;;;;;25.84;87.64;99619.25;5113572;28;20270;-76
2023/06/25 09:34:16;;;;;;;7.78;7.10;;;;;;;25.93;86.08;99622.00;5112777;28;20912;-75
2023/06/25 09:36:44;;;;;;;8.18;7.38;;;;;;;25.75;87.40;99615.69;5113353;28;20197;-75
2023/06/25 09:39:12;;;;;;;7.40;6.80;;;;;;;25.73;87.22;99612.44;5113530;28;20634;-76
2023/06/25 09:41:43;;;;;;;8.18;7.38;;;;;;;25.55;85.84;99621.75;5113196;28;20195;-75
2023/06/25 09:44:10;;;;;;;10.23;7.65;;;;;;;25.52;83.57;99616.06;5113266;28;20280;-76
2023/06/25 09:46:39;;;;;;;7.38;6.78;;;;;;;25.93;84.20;99612.94;5113099;28;20202;-76
2023/06/25 09:49:07;;;;;;;7.82;7.13;;;;;;;25.37;88.12;99612.63;5112842;28;20205;-75
2023/06/25 09:51:44;;;;;;;7.93;7.25;;;;;;;25.04;84.59;99610.56;5108729;28;20246;-75
2023/06/25 09:54:12;;;;;;;7.95;7.25;;;;;;;25.29;84.41;99607.91;5095439;28;20191;-75
2023/06/25 09:56:39;;;;;;;7.53;6.82;;;;;;;26.46;83.34;99599.72;5102035;28;20195;-76
2023/06/25 09:59:06;;;;;;;7.80;6.88;;;;;;;26.81;84.19;99603.22;5091966;28;20878;-76
2023/06/25 10:01:32;;;;;;;7.03;6.45;;;;;;;26.94;78.27;99593.19;5103470;28;20184;-75
2023/06/25 10:03:59;;;;;;;7.45;6.80;;;;;;;27.59;77.68;99595.50;5113210;28;20735;-75
2023/06/25 10:06:26;;;;;;;7.60;6.90;;;;;;;26.69;77.46;99601.13;5099240;28;20216;-75
2023/06/25 10:08:54;;;;;;;7.88;7.10;;;;;;;26.81;78.85;99596.91;5095673;28;20559;-75
2023/06/25 10:11:21;;;;;;;8.07;7.38;;;;;;;26.32;76.21;99592.81;5111522;28;20192;-76
2023/06/25 10:13:51;;;;;;;8.10;7.40;;;;;;;27.02;76.27;99593.16;5094078;28;20237;-78
2023/06/25 10:16:19;;;;;;;8.18;7.40;;;;;;;27.50;75.53;99592.00;5113358;28;20618;-78
2023/06/25 10:18:59;;;;;;;7.80;7.20;;;;;;;26.43;74.38;99594.88;5096717;28;20258;-79
2023/06/25 10:21:26;;;;;;;7.95;7.28;;;;;;;26.40;75.77;99586.50;5095057;28;20199;-78
2023/06/25 10:24:00;;;;;;;7.78;7.18;;;;;;;26.55;75.23;99594.25;5112948;28;20192;-75
2023/06/25 10:26:36;;;;;;;9.27;7.38;;;;;;;25.97;75.83;99579.03;5108594;28;20586;-78
2023/06/25 10:29:07;;;;;;;8.15;7.40;;;;;;;26.58;76.61;99586.16;5107684;28;20195;-75
2023/06/25 10:31:41;;;;;;;7.57;6.88;;;;;;;27.08;75.20;99586.34;5104610;28;20203;-77
2023/06/25 10:34:10;;;;;;;7.65;6.85;;;;;;;27.24;74.89;99581.09;5111400;28;20195;-79
2023/06/25 10:36:47;;;;;;;7.47;6.78;;;;;;;27.47;74.57;99574.19;5106321;28;20188;-78
2023/06/25 10:39:14;;;;;;;8.40;7.20;;;;;;;27.13;71.28;99571.59;5112831;28;20204;-78
2023/06/25 10:41:46;;;;;;;8.30;7.55;;;;;;;26.95;70.96;99568.13;5112713;28;20195;-78
2023/06/25 10:44:13;;;;;;;9.25;7.30;;;;;;;27.73;71.96;99567.72;5112675;28;20709;-78
2023/06/25 10:46:40;;;;;;;7.90;7.05;;;;;;;27.84;69.42;99568.94;5112429;28;20529;-79
2023/06/25 10:49:07;;;;;;;7.40;6.80;;;;;;;26.97;69.86;99565.06;5108551;28;20271;-78
2023/06/25 10:51:34;;;;;;;8.00;7.35;;;;;;;27.48;68.36;99553.78;5112317;28;20200;-77
2023/06/25 10:54:00;;;;;;;8.07;7.40;;;;;;;27.70;71.66;99566.47;5112661;28;20707;-78
2023/06/25 10:56:27;;;;;;;8.05;7.32;;;;;;;27.56;67.55;99558.47;5112429;28;20191;-78
2023/06/25 10:58:57;;;;;;;7.38;6.78;;;;;;;27.14;69.40;99557.53;5096333;28;20191;-78
2023/06/25 11:01:25;;;;;;;7.65;7.05;;;;;;;26.51;71.41;99554.78;5094697;28;20198;-74
2023/06/25 11:03:51;;;;;;;8.30;7.60;;;;;;;26.48;71.02;99553.50;5084636;28;20238;-78
2023/06/25 11:06:18;;;;;;;8.25;7.57;;;;;;;26.92;69.76;99546.00;5091745;28;20267;-75
2023/06/25 11:08:47;;;;;;;7.88;7.07;;;;;;;27.45;69.17;99546.19;5091842;28;20192;-77
2023/06/25 11:11:14;;;;;;;8.45;7.75;;;;;;;27.97;67.98;99537.59;5091520;28;20188;-75
2023/06/25 11:13:41;;;;;;;7.95;7.25;;;;;;;28.33;67.44;99535.00;5084172;28;20793;-75
2023/06/25 11:16:08;;;;;;;7.72;7.03;;;;;;;27.96;65.75;99542.28;5090991;28;20329;-75
2023/06/25 11:18:36;;;;;;;7.97;7.00;;;;;;;28.24;66.16;99541.75;5090890;28;20188;-76
2023/06/25 11:21:04;;;;;;;7.80;6.97;;;;;;;27.83;66.88;99542.56;5083451;28;20280;-77
2023/06/25 11:23:32;;;;;;;7.68;7.00;;;;;;;27.87;66.16;99536.03;5090121;28;20196;-79
2023/06/25 11:26:03;;;;;;;7.80;7.20;;;;;;;27.30;66.00;99533.00;5082674;28;20225;-78
2023/06/25 11:28:30;;;;;;;8.10;7.40;;;;;;;28.14;65.08;99523.69;5074702;28;20196;-77
2023/06/25 11:30:58;;;;;;;7.78;7.18;;;;;;;28.82;64.46;99524.13;5067908;28;20664;-79